createdAt,value
2023-05-01T00:01:08.149Z,65.72
2023-05-01T00:03:35.136Z,66.03
2023-05-01T00:06:04.850Z,65.98
2023-05-01T00:08:32.418Z,65.89
2023-05-01T00:11:05.688Z,66.03
2023-05-01T00:13:32.295Z,66.14
2023-05-01T00:15:58.725Z,65.72
2023-05-01T00:18:25.142Z,66.37
2023-05-01T00:20:51.560Z,69.34
2023-05-01T00:23:17.915Z,68.41
2023-05-01T00:25:44.311Z,70.49
2023-05-01T00:28:11.364Z,69.54
2023-05-01T00:30:37.783Z,67.66
2023-05-01T00:33:04.204Z,67.80
2023-05-01T00:35:30.933Z,67.20
2023-05-01T00:37:57.305Z,69.36
2023-05-01T00:40:23.701Z,67.05
2023-05-01T00:42:50.044Z,68.65
2023-05-01T00:45:16.389Z,68.99
2023-05-01T00:47:42.858Z,70.75
2023-05-01T00:50:09.795Z,71.21
2023-05-01T00:52:36.367Z,70.26
2023-05-01T00:55:05.295Z,69.92
2023-05-01T00:57:32.524Z,70.41
2023-05-01T00:59:59.032Z,70.06
2023-05-01T01:02:27.230Z,68.74
2023-05-01T01:04:54.139Z,69.29
2023-05-01T01:07:29.410Z,69.86
2023-05-01T01:10:01.008Z,67.77
2023-05-01T01:12:31.444Z,68.98
2023-05-01T01:15:08.999Z,69.83
2023-05-01T01:17:49.494Z,67.20
2023-05-01T01:20:33.000Z,66.99
2023-05-01T01:23:19.985Z,65.86
2023-05-01T01:26:11.113Z,67.42
2023-05-01T01:29:16.807Z,69.32
2023-05-01T01:32:14.114Z,69.18
2023-05-01T01:34:47.553Z,70.58
2023-05-01T01:37:30.291Z,70.61
2023-05-01T01:40:09.882Z,71.31
2023-05-01T01:42:54.885Z,72.61
2023-05-01T01:45:30.594Z,73.59
2023-05-01T01:47:57.599Z,74.54
2023-05-01T01:50:27.065Z,74.38
2023-05-01T01:52:55.293Z,74.03
2023-05-01T01:55:27.600Z,75.46
2023-05-01T01:57:54.169Z,74.83
2023-05-01T02:00:22.745Z,76.44
2023-05-01T02:02:50.980Z,75.74
2023-05-01T02:05:19.404Z,77.19
2023-05-01T02:07:48.610Z,77.30
2023-05-01T02:10:16.171Z,77.49
2023-05-01T02:12:46.091Z,77.53
2023-05-01T02:15:13.804Z,77.77
2023-05-01T02:17:41.478Z,78.11
2023-05-01T02:20:12.624Z,78.98
2023-05-01T02:22:42.746Z,78.47
2023-05-01T02:25:11.759Z,77.92
2023-05-01T02:27:55.637Z,79.16
2023-05-01T02:30:22.237Z,79.88
2023-05-01T02:32:48.673Z,80.13
2023-05-01T02:35:17.033Z,81.18
2023-05-01T02:37:44.814Z,80.94
2023-05-01T02:40:14.894Z,81.94
2023-05-01T02:42:43.637Z,83.09
2023-05-01T02:45:16.136Z,82.90
2023-05-01T02:47:45.913Z,83.12
2023-05-01T02:50:13.872Z,83.00
2023-05-01T02:52:41.042Z,84.07
2023-05-01T02:55:08.445Z,83.93
2023-05-01T02:57:35.223Z,84.34
2023-05-01T03:00:01.617Z,85.06
2023-05-01T03:02:27.998Z,84.74
2023-05-01T03:04:54.359Z,84.84
2023-05-01T03:07:20.700Z,84.82
2023-05-01T03:09:47.046Z,85.77
2023-05-01T03:12:13.400Z,86.11
2023-05-01T03:14:39.815Z,86.79
2023-05-01T03:17:06.164Z,87.49
2023-05-01T03:19:34.111Z,87.92
2023-05-01T03:22:00.577Z,87.44
2023-05-01T03:24:26.983Z,87.34
2023-05-01T03:26:53.330Z,88.21
2023-05-01T03:29:19.682Z,89.33
2023-05-01T03:31:46.082Z,89.51
2023-05-01T03:34:12.455Z,91.55
2023-05-01T03:36:38.902Z,90.52
2023-05-01T03:39:05.663Z,90.06
2023-05-01T03:41:32.007Z,90.18
2023-05-01T03:43:58.390Z,91.27
2023-05-01T03:46:24.784Z,91.84
2023-05-01T03:48:51.167Z,91.19
2023-05-01T03:51:17.508Z,91.81
2023-05-01T03:53:43.855Z,92.03
2023-05-01T03:56:10.243Z,92.33
2023-05-01T03:58:36.727Z,90.71
2023-05-01T04:01:03.589Z,92.38
2023-05-01T04:03:30.077Z,92.36
2023-05-01T04:05:57.106Z,92.38
2023-05-01T04:08:24.121Z,93.07
2023-05-01T04:10:50.623Z,91.70
2023-05-01T04:13:17.136Z,92.34
2023-05-01T04:15:46.762Z,91.49
2023-05-01T04:18:13.404Z,90.94
2023-05-01T04:20:40.336Z,89.30
2023-05-01T04:23:06.707Z,88.65
2023-05-01T04:25:33.072Z,87.51
2023-05-01T04:27:59.422Z,88.73
2023-05-01T04:30:25.770Z,89.49
2023-05-01T04:32:52.144Z,89.41
2023-05-01T04:35:18.791Z,89.12
2023-05-01T04:37:45.767Z,88.04
2023-05-01T04:40:12.476Z,88.24
2023-05-01T04:42:38.821Z,88.31
2023-05-01T04:45:06.210Z,88.27
2023-05-01T04:47:32.599Z,87.89
2023-05-01T04:49:59.007Z,88.39
2023-05-01T04:52:25.341Z,87.12
2023-05-01T04:54:51.762Z,86.53
2023-05-01T04:57:18.289Z,84.23
2023-05-01T04:59:44.666Z,83.69
2023-05-01T05:02:11.036Z,84.34
2023-05-01T05:04:37.739Z,84.52
2023-05-01T05:07:04.095Z,83.04
2023-05-01T05:09:30.614Z,82.21
2023-05-01T05:11:56.990Z,78.46
2023-05-01T05:14:23.396Z,77.42
2023-05-01T05:16:50.102Z,76.26
2023-05-01T05:19:16.554Z,77.06
2023-05-01T05:21:42.917Z,77.39
2023-05-01T05:24:09.259Z,75.76
2023-05-01T05:26:35.624Z,75.55
2023-05-01T05:29:02.028Z,74.81
2023-05-01T05:31:28.433Z,72.75
2023-05-01T05:33:54.888Z,72.60
2023-05-01T05:36:21.522Z,70.13
2023-05-01T05:38:47.885Z,70.36
2023-05-01T05:41:14.287Z,72.67
2023-05-01T05:43:40.638Z,71.93
2023-05-01T05:46:07.285Z,71.42
2023-05-01T05:48:33.726Z,72.31
2023-05-01T05:51:00.189Z,69.96
2023-05-01T05:53:26.634Z,71.00
2023-05-01T05:55:53.173Z,68.94
2023-05-01T05:58:23.311Z,69.49
2023-05-01T06:00:50.427Z,71.09
2023-05-01T06:03:17.030Z,69.73
2023-05-01T06:05:44.067Z,70.27
2023-05-01T06:08:11.021Z,72.05
2023-05-01T06:10:39.568Z,70.36
2023-05-01T06:13:14.145Z,69.79
2023-05-01T06:15:41.749Z,70.46
2023-05-01T06:18:08.453Z,71.13
2023-05-01T06:20:35.117Z,69.85
2023-05-01T06:23:01.491Z,67.97
2023-05-01T06:25:27.904Z,70.61
2023-05-01T06:27:54.297Z,69.61
2023-05-01T06:30:21.825Z,67.42
2023-05-01T06:32:48.384Z,66.29
2023-05-01T06:35:15.770Z,67.38
2023-05-01T06:37:42.147Z,67.84
2023-05-01T06:40:09.790Z,67.22
2023-05-01T06:42:40.077Z,65.60
2023-05-01T06:45:07.691Z,67.74
2023-05-01T06:47:34.683Z,66.74
2023-05-01T06:50:02.898Z,65.62
2023-05-01T06:52:31.010Z,64.65
2023-05-01T06:54:57.400Z,62.09
2023-05-01T06:57:23.770Z,59.35
2023-05-01T06:59:50.190Z,60.80
2023-05-01T07:02:16.822Z,58.82
2023-05-01T07:04:44.443Z,58.93
2023-05-01T07:07:11.002Z,59.21
2023-05-01T07:09:37.366Z,56.01
2023-05-01T07:12:04.297Z,52.63
2023-05-01T07:14:30.643Z,53.58
2023-05-01T07:16:57.119Z,50.49
2023-05-01T07:19:23.599Z,51.76
2023-05-01T07:21:49.973Z,49.02
2023-05-01T07:24:16.787Z,48.27
2023-05-01T07:26:43.174Z,46.91
2023-05-01T07:29:09.514Z,45.86
2023-05-01T07:31:36.298Z,45.45
2023-05-01T07:34:02.652Z,45.61
2023-05-01T07:36:29.418Z,46.45
2023-05-01T07:38:56.584Z,45.81
2023-05-01T07:41:25.058Z,46.92
2023-05-01T07:43:51.459Z,47.74
2023-05-01T07:46:19.077Z,48.09
2023-05-01T07:48:46.356Z,49.53
2023-05-01T07:51:12.908Z,51.00
2023-05-01T07:53:40.726Z,48.52
2023-05-01T07:56:09.004Z,49.03
2023-05-01T07:58:37.081Z,48.87
2023-05-01T08:01:04.102Z,52.40
2023-05-01T08:03:31.128Z,51.63
2023-05-01T08:05:58.065Z,52.79
2023-05-01T08:08:24.866Z,52.03
2023-05-01T08:10:51.985Z,55.10
2023-05-01T08:13:18.498Z,53.88
2023-05-01T08:15:47.412Z,52.40
2023-05-01T08:18:19.608Z,52.79
2023-05-01T08:20:49.655Z,55.04
2023-05-01T08:23:17.212Z,53.46
2023-05-01T08:25:46.622Z,55.38
2023-05-01T08:28:14.693Z,56.04
2023-05-01T08:30:41.117Z,52.59
2023-05-01T08:33:07.748Z,53.42
2023-05-01T08:35:34.182Z,51.91
2023-05-01T08:38:01.609Z,52.14
2023-05-01T08:40:34.416Z,51.50
2023-05-01T08:43:01.307Z,51.13
2023-05-01T08:45:30.988Z,49.86
2023-05-01T08:47:58.881Z,49.97
2023-05-01T08:50:25.975Z,48.41
2023-05-01T08:52:53.052Z,48.92
2023-05-01T08:55:20.782Z,45.26
2023-05-01T08:57:48.471Z,44.35
2023-05-01T09:00:19.568Z,44.07
2023-05-01T09:02:48.567Z,42.51
2023-05-01T09:05:19.363Z,43.99
2023-05-01T09:07:46.616Z,42.10
2023-05-01T09:10:15.304Z,43.34
2023-05-01T09:12:44.893Z,43.20
2023-05-01T09:15:12.398Z,43.35
2023-05-01T09:17:40.008Z,43.63
2023-05-01T09:20:07.777Z,41.32
2023-05-01T09:22:35.063Z,43.03
2023-05-01T09:25:02.059Z,44.29
2023-05-01T09:27:30.019Z,41.75
2023-05-01T09:29:56.560Z,41.57
2023-05-01T09:32:30.627Z,43.12
2023-05-01T09:35:13.574Z,44.41
2023-05-01T09:37:40.928Z,45.02
2023-05-01T09:40:14.586Z,44.56
2023-05-01T09:42:49.363Z,45.46
2023-05-01T09:45:18.594Z,44.34
2023-05-01T09:47:46.783Z,45.71
2023-05-01T09:50:33.007Z,46.71
2023-05-01T09:53:02.019Z,46.62
2023-05-01T09:55:28.385Z,47.56
2023-05-01T09:57:54.755Z,47.92
2023-05-01T10:00:22.086Z,49.38
2023-05-01T10:02:49.807Z,48.75
2023-05-01T10:05:16.872Z,49.10
2023-05-01T10:07:59.264Z,51.26
2023-05-01T10:10:26.235Z,49.43
2023-05-01T10:12:52.841Z,47.41
2023-05-01T10:15:26.101Z,45.46
2023-05-01T10:17:54.169Z,48.42
2023-05-01T10:20:21.356Z,45.91
2023-05-01T10:22:48.878Z,46.80
2023-05-01T10:25:17.832Z,46.94
2023-05-01T10:27:44.374Z,49.69
2023-05-01T10:30:11.316Z,52.66
2023-05-01T10:32:40.978Z,49.68
2023-05-01T10:35:12.321Z,48.42
2023-05-01T10:37:46.380Z,47.74
2023-05-01T10:40:48.149Z,47.52
2023-05-01T10:43:28.667Z,48.44
2023-05-01T10:46:19.177Z,47.86
2023-05-01T10:48:45.644Z,48.71
2023-05-01T10:51:17.876Z,47.43
2023-05-01T10:53:46.069Z,48.26
2023-05-01T10:56:21.807Z,48.07
2023-05-01T10:58:53.917Z,47.25
2023-05-01T11:01:42.679Z,47.03
2023-05-01T11:04:27.366Z,48.44
2023-05-01T11:07:07.494Z,49.02
2023-05-01T11:09:39.628Z,48.21
2023-05-01T11:12:07.026Z,50.11
2023-05-01T11:15:03.492Z,50.47
2023-05-01T11:17:42.202Z,50.57
2023-05-01T11:20:13.630Z,50.68
2023-05-01T11:22:46.320Z,51.77
2023-05-01T11:25:27.574Z,52.12
2023-05-01T11:27:57.041Z,51.79
2023-05-01T11:30:23.802Z,49.17
2023-05-01T11:32:51.197Z,51.34
2023-05-01T11:35:20.831Z,52.37
2023-05-01T11:37:47.907Z,49.15
2023-05-01T11:40:25.805Z,49.17
2023-05-01T11:43:06.803Z,50.81
2023-05-01T11:45:35.284Z,46.99
2023-05-01T11:48:04.544Z,47.45
2023-05-01T11:50:33.100Z,49.06
2023-05-01T11:52:59.534Z,50.00
2023-05-01T11:55:33.009Z,49.59
2023-05-01T11:57:59.545Z,49.74
2023-05-01T12:00:34.859Z,48.85
2023-05-01T12:03:03.313Z,48.66
2023-05-01T12:05:31.260Z,48.65
2023-05-01T12:08:24.321Z,47.94
2023-05-01T12:10:58.286Z,47.84
2023-05-01T12:13:26.065Z,47.69
2023-05-01T12:15:54.642Z,47.76
2023-05-01T12:18:21.963Z,48.04
2023-05-01T12:20:54.222Z,49.26
2023-05-01T12:23:32.330Z,46.54
2023-05-01T12:25:58.778Z,47.67
2023-05-01T12:28:26.593Z,47.37
2023-05-01T12:30:56.118Z,48.25
2023-05-01T12:33:22.509Z,46.92
2023-05-01T12:35:50.621Z,49.35
2023-05-01T12:38:18.905Z,48.92
2023-05-01T12:40:53.249Z,46.39
2023-05-01T12:43:29.334Z,46.28
2023-05-01T12:45:55.860Z,49.48
2023-05-01T12:48:22.907Z,46.93
2023-05-01T12:50:54.897Z,47.87
2023-05-01T12:53:25.729Z,49.78
2023-05-01T12:55:54.287Z,50.87
2023-05-01T12:58:20.966Z,51.52
2023-05-01T13:00:51.283Z,50.65
2023-05-01T13:03:28.029Z,51.34
2023-05-01T13:06:03.712Z,55.15
2023-05-01T13:08:36.711Z,50.90
2023-05-01T13:11:14.164Z,50.64
2023-05-01T13:13:40.838Z,50.78
2023-05-01T13:16:12.147Z,52.90
2023-05-01T13:18:49.889Z,51.58
2023-05-01T13:21:18.833Z,53.89
2023-05-01T13:23:59.933Z,55.20
2023-05-01T13:26:31.396Z,53.78
2023-05-01T13:28:59.909Z,54.06
2023-05-01T13:31:26.735Z,54.73
2023-05-01T13:33:54.926Z,53.66
2023-05-01T13:36:26.302Z,55.30
2023-05-01T13:38:55.952Z,56.15
2023-05-01T13:41:29.075Z,54.48
2023-05-01T13:43:57.111Z,55.11
2023-05-01T13:46:26.382Z,55.95
2023-05-01T13:48:53.212Z,54.79
2023-05-01T13:51:24.452Z,54.65
2023-05-01T13:53:53.301Z,55.50
2023-05-01T13:56:21.436Z,54.95
2023-05-01T13:58:47.857Z,54.17
2023-05-01T14:01:16.494Z,54.87
2023-05-01T14:03:43.114Z,54.31
2023-05-01T14:06:20.727Z,54.19
2023-05-01T14:08:48.397Z,54.14
2023-05-01T14:11:15.559Z,55.36
2023-05-01T14:13:44.174Z,53.72
2023-05-01T14:16:16.102Z,56.30
2023-05-01T14:18:46.052Z,55.89
2023-05-01T14:21:15.070Z,53.73
2023-05-01T14:23:44.187Z,53.94
2023-05-01T14:26:11.914Z,54.10
2023-05-01T14:28:42.551Z,52.88
2023-05-01T14:31:09.021Z,52.99
2023-05-01T14:33:42.580Z,51.42
2023-05-01T14:36:09.010Z,51.91
2023-05-01T14:38:39.133Z,54.13
2023-05-01T14:41:05.876Z,51.34
2023-05-01T14:43:33.608Z,52.28
2023-05-01T14:46:00.349Z,53.95
2023-05-01T14:48:35.895Z,54.22
2023-05-01T14:51:04.385Z,52.68
2023-05-01T14:53:32.576Z,51.04
2023-05-01T14:55:59.024Z,50.42
2023-05-01T14:58:25.466Z,50.48
2023-05-01T15:00:51.950Z,51.59
2023-05-01T15:03:18.424Z,52.20
2023-05-01T15:05:45.995Z,51.75
2023-05-01T15:08:12.419Z,50.02
2023-05-01T15:10:38.930Z,50.80
2023-05-01T15:13:06.556Z,51.96
2023-05-01T15:15:32.956Z,51.85
2023-05-01T15:17:59.414Z,51.89
2023-05-01T15:20:25.830Z,52.95
2023-05-01T15:22:52.249Z,52.73
2023-05-01T15:25:18.776Z,52.88
2023-05-01T15:27:46.093Z,53.13
2023-05-01T15:30:14.415Z,53.08
2023-05-01T15:32:41.113Z,54.55
2023-05-01T15:35:09.141Z,54.38
2023-05-01T15:37:35.670Z,54.76
2023-05-01T15:40:04.229Z,57.34
2023-05-01T15:42:30.618Z,58.80
2023-05-01T15:44:57.063Z,62.05
2023-05-01T15:47:23.685Z,65.82
2023-05-01T15:49:50.066Z,67.63
2023-05-01T15:52:16.821Z,71.44
2023-05-01T15:54:46.109Z,74.39
2023-05-01T15:57:12.501Z,73.54
2023-05-01T15:59:40.408Z,71.96
2023-05-01T16:02:08.734Z,73.04
2023-05-01T16:04:35.616Z,69.97
2023-05-01T16:07:03.168Z,70.02
2023-05-01T16:09:33.784Z,71.15
2023-05-01T16:12:02.904Z,70.49
2023-05-01T16:14:29.407Z,71.12
2023-05-01T16:16:55.811Z,72.42
2023-05-01T16:19:22.536Z,72.89
2023-05-01T16:21:48.924Z,72.43
2023-05-01T16:24:15.408Z,72.22
2023-05-01T16:26:41.937Z,72.02
2023-05-01T16:29:08.363Z,71.62
2023-05-01T16:31:38.662Z,72.51
2023-05-01T16:34:07.058Z,72.40
2023-05-01T16:36:39.923Z,70.96
2023-05-01T16:39:08.358Z,72.14
2023-05-01T16:41:45.218Z,71.28
2023-05-01T16:44:13.187Z,72.79
2023-05-01T16:46:41.719Z,72.27
2023-05-01T16:49:11.624Z,71.96
2023-05-01T16:51:39.472Z,69.20
2023-05-01T16:54:05.826Z,67.96
2023-05-01T16:56:32.470Z,69.32
2023-05-01T16:58:59.385Z,67.63
2023-05-01T17:01:25.757Z,66.84
2023-05-01T17:03:52.349Z,66.69
2023-05-01T17:06:18.769Z,66.04
2023-05-01T17:08:45.478Z,66.42
2023-05-01T17:11:14.338Z,63.72
2023-05-01T17:13:40.852Z,64.03
2023-05-01T17:16:08.226Z,66.45
2023-05-01T17:18:34.657Z,66.53
2023-05-01T17:21:00.993Z,66.63
2023-05-01T17:23:28.883Z,66.85
2023-05-01T17:25:56.242Z,66.76
2023-05-01T17:28:23.882Z,67.29
2023-05-01T17:30:50.444Z,68.11
2023-05-01T17:33:17.107Z,68.27
2023-05-01T17:35:43.900Z,68.07
2023-05-01T17:38:10.274Z,68.32
2023-05-01T17:40:36.791Z,71.44
2023-05-01T17:43:03.318Z,71.05
2023-05-01T17:45:29.712Z,71.49
2023-05-01T17:47:56.148Z,72.29
2023-05-01T17:50:22.609Z,73.51
2023-05-01T17:52:48.997Z,74.07
2023-05-01T17:55:18.053Z,72.44
2023-05-01T17:57:46.725Z,67.75
2023-05-01T18:00:13.719Z,68.64
2023-05-01T18:02:44.256Z,70.16
2023-05-01T18:05:11.010Z,67.27
2023-05-01T18:07:37.489Z,65.28
2023-05-01T18:10:04.600Z,65.77
2023-05-01T18:12:31.722Z,66.79
2023-05-01T18:14:58.087Z,64.65
2023-05-01T18:17:25.082Z,64.81
2023-05-01T18:19:51.467Z,65.17
2023-05-01T18:22:17.841Z,66.40
2023-05-01T18:24:44.520Z,67.70
2023-05-01T18:27:11.999Z,68.46
2023-05-01T18:29:38.355Z,67.89
2023-05-01T18:32:05.050Z,68.44
2023-05-01T18:34:31.659Z,68.02
2023-05-01T18:36:58.009Z,65.46
2023-05-01T18:39:24.389Z,66.22
2023-05-01T18:41:51.181Z,67.07
2023-05-01T18:44:18.080Z,67.97
2023-05-01T18:46:44.909Z,68.62
2023-05-01T18:49:11.449Z,69.28
2023-05-01T18:51:37.931Z,69.72
2023-05-01T18:54:06.951Z,70.59
2023-05-01T18:56:33.789Z,70.58
2023-05-01T18:59:00.892Z,71.45
2023-05-01T19:01:27.274Z,71.89
2023-05-01T19:03:58.749Z,71.23
2023-05-01T19:06:26.435Z,71.91
2023-05-01T19:08:53.453Z,72.38
2023-05-01T19:11:21.442Z,71.60
2023-05-01T19:13:48.569Z,71.78
2023-05-01T19:16:15.005Z,72.19
2023-05-01T19:18:41.436Z,72.82
2023-05-01T19:21:07.871Z,72.38
2023-05-01T19:23:35.545Z,72.09
2023-05-01T19:26:04.289Z,72.33
2023-05-01T19:28:31.164Z,73.14
2023-05-01T19:30:57.810Z,73.25
2023-05-01T19:33:24.200Z,73.22
2023-05-01T19:35:50.658Z,73.19
2023-05-01T19:38:17.087Z,73.67
2023-05-01T19:40:44.865Z,74.24
2023-05-01T19:43:13.303Z,73.73
2023-05-01T19:45:39.916Z,74.25
2023-05-01T19:48:06.880Z,73.75
2023-05-01T19:50:33.523Z,74.71
2023-05-01T19:53:00.130Z,74.64
2023-05-01T19:55:26.488Z,75.11
2023-05-01T19:57:52.850Z,74.67
2023-05-01T20:00:19.528Z,75.39
2023-05-01T20:02:46.735Z,75.26
2023-05-01T20:05:14.426Z,75.20
2023-05-01T20:07:41.207Z,75.18
2023-05-01T20:10:09.596Z,74.77
2023-05-01T20:12:35.951Z,75.37
2023-05-01T20:15:02.488Z,75.19
2023-05-01T20:17:29.117Z,74.89
2023-05-01T20:19:55.728Z,75.39
2023-05-01T20:22:22.239Z,75.21
2023-05-01T20:24:48.721Z,75.42
2023-05-01T20:27:15.780Z,75.49
2023-05-01T20:29:42.176Z,75.49
2023-05-01T20:32:08.534Z,75.34
2023-05-01T20:34:34.897Z,75.61
2023-05-01T20:37:01.232Z,76.43
2023-05-01T20:39:27.720Z,75.15
2023-05-01T20:41:54.119Z,75.97
2023-05-01T20:44:20.507Z,75.26
2023-05-01T20:46:47.288Z,75.36
2023-05-01T20:49:16.024Z,75.53
2023-05-01T20:51:42.642Z,75.62
2023-05-01T20:54:09.019Z,75.74
2023-05-01T20:56:35.381Z,75.05
2023-05-01T20:59:03.493Z,75.28
2023-05-01T21:01:31.980Z,76.02
2023-05-01T21:03:59.733Z,75.37
2023-05-01T21:06:27.208Z,75.18
2023-05-01T21:08:53.682Z,75.72
2023-05-01T21:11:20.070Z,75.76
2023-05-01T21:13:46.446Z,75.66
2023-05-01T21:16:17.006Z,75.27
2023-05-01T21:18:43.554Z,75.02
2023-05-01T21:21:10.616Z,74.88
2023-05-01T21:23:45.798Z,75.37
2023-05-01T21:26:13.826Z,74.75
2023-05-01T21:28:40.174Z,75.14
2023-05-01T21:31:06.630Z,75.14
2023-05-01T21:33:33.627Z,74.91
2023-05-01T21:36:00.005Z,75.41
2023-05-01T21:38:26.392Z,75.44
2023-05-01T21:40:52.766Z,75.46
2023-05-01T21:43:19.692Z,76.06
2023-05-01T21:45:46.062Z,76.04
2023-05-01T21:48:16.088Z,76.30
2023-05-01T21:50:42.544Z,76.64
2023-05-01T21:53:08.923Z,76.27
2023-05-01T21:55:35.385Z,76.21
2023-05-01T21:58:02.110Z,76.36
2023-05-01T22:00:29.846Z,77.21
2023-05-01T22:02:56.474Z,76.70
2023-05-01T22:05:23.314Z,76.47
2023-05-01T22:07:52.082Z,76.43
2023-05-01T22:10:19.479Z,77.13
2023-05-01T22:12:46.709Z,77.95
2023-05-01T22:15:15.314Z,76.93
2023-05-01T22:17:42.006Z,77.31
2023-05-01T22:20:09.072Z,76.94
2023-05-01T22:22:36.464Z,76.87
2023-05-01T22:25:03.994Z,77.17
2023-05-01T22:27:31.130Z,77.26
2023-05-01T22:29:57.791Z,76.84
2023-05-01T22:32:24.487Z,76.81
2023-05-01T22:34:50.937Z,77.68
2023-05-01T22:37:18.809Z,78.07
2023-05-01T22:39:45.295Z,77.19
2023-05-01T22:42:11.679Z,77.39
2023-05-01T22:44:38.097Z,77.54
2023-05-01T22:47:04.445Z,77.85
2023-05-01T22:49:32.592Z,77.82
2023-05-01T22:51:59.168Z,78.28
2023-05-01T22:54:25.772Z,78.73
2023-05-01T22:56:52.342Z,78.77
2023-05-01T22:59:19.381Z,79.52
2023-05-01T23:01:46.218Z,78.74
2023-05-01T23:04:13.251Z,78.89
2023-05-01T23:06:40.225Z,79.39
2023-05-01T23:09:07.155Z,78.88
2023-05-01T23:11:34.849Z,79.19
2023-05-01T23:14:01.781Z,79.21
2023-05-01T23:16:36.083Z,80.08
2023-05-01T23:19:03.386Z,80.56
2023-05-01T23:21:29.752Z,80.74
2023-05-01T23:23:56.099Z,80.99
2023-05-01T23:26:28.643Z,80.93
2023-05-01T23:28:55.129Z,81.57
2023-05-01T23:31:25.576Z,82.19
2023-05-01T23:33:53.247Z,82.59
2023-05-01T23:36:19.792Z,82.82
2023-05-01T23:38:47.011Z,83.16
2023-05-01T23:41:13.953Z,82.89
2023-05-01T23:43:40.580Z,82.99
2023-05-01T23:46:10.118Z,82.90
2023-05-01T23:48:37.010Z,83.07
2023-05-01T23:51:03.834Z,83.52
2023-05-01T23:53:30.388Z,83.71
2023-05-01T23:55:56.919Z,83.53
2023-05-01T23:58:23.985Z,83.98
